MST,Max TemperatureF,Mean TemperatureF,Min TemperatureF,Max Dew PointF,MeanDew PointF,Min DewpointF,Max Humidity, Mean Humidity, Min Humidity, Max Sea Level PressureIn, Mean Sea Level PressureIn, Min Sea Level PressureIn, Max VisibilityMiles, Mean VisibilityMiles, Min VisibilityMiles, Max Wind SpeedMPH, Mean Wind SpeedMPH, Max Gust SpeedMPH,PrecipitationIn, CloudCover, Events, WindDirDegrees
2013-11-1,47,37,27,29,26,24,92,67,42,30.27,30.20,30.13,10,10,10,12,5,16,0.01,5,,325
2013-11-2,53,39,24,33,28,23,92,64,35,30.16,29.82,29.63,10,9,2,24,6,32,0.03,4,Rain-Snow,167
2013-11-3,33,29,25,22,15,12,69,56,43,29.97,29.84,29.68,10,10,10,16,7,20,T,7,,281
2013-11-4,31,24,17,20,16,10,84,64,43,30.19,30.02,29.92,10,8,0,16,3,22,T,6,Snow,347
2013-11-5,34,22,9,23,13,6,88,61,33,30.31,30.21,30.04,10,10,10,13,3,21,T,4,,338
2013-11-6,41,36,31,27,21,14,78,56,34,30.36,30.25,30.12,10,10,8,18,7,24,T,7,,299
2013-11-7,49,39,28,34,30,23,92,73,53,30.33,29.96,29.74,10,7,1,29,7,37,0.06,7,Rain-Snow,195
2013-11-8,40,33,26,25,22,20,75,64,52,30.18,29.99,29.83,10,10,10,18,7,25,0.00,6,,267
2013-11-9,43,31,19,27,21,16,91,66,41,30.31,30.24,30.19,10,10,10,6,1,8,0.00,1,,123
2013-11-10,55,41,26,30,28,24,92,65,38,30.24,30.17,30.12,10,10,10,15,5,21,0.00,4,,228
2013-11-11,50,38,26,34,28,23,92,71,50,30.53,30.39,30.19,10,10,10,7,2,8,0.00,1,,151
2013-11-12,61,41,21,30,24,19,96,59,22,30.54,30.40,30.22,10,10,9,12,3,17,0.00,1,,198
2013-11-13,51,40,29,33,26,20,82,58,34,30.29,30.22,30.12,10,10,10,25,6,32,0.00,4,,312
2013-11-14,44,32,20,22,19,14,92,61,30,30.21,30.03,29.85,10,10,10,9,2,12,0.00,0,,337
2013-11-15,37,28,19,20,16,13,91,65,38,29.84,29.64,29.38,10,10,10,17,6,25,0.00,7,,266
2013-11-16,35,30,24,25,17,10,63,53,43,29.65,29.36,29.26,10,9,2,20,8,26,T,7,Snow,232
2013-11-17,36,30,23,17,14,11,63,52,40,30.02,29.88,29.66,10,10,10,21,7,26,0.00,5,,249
2013-11-18,51,38,25,19,12,8,68,43,18,30.03,29.94,29.82,10,10,9,18,6,22,0.00,0,,278
2013-11-19,49,37,25,30,25,20,75,59,42,29.79,29.70,29.65,10,10,7,21,7,30,T,7,,230
2013-11-20,40,26,12,34,23,4,96,73,49,30.35,29.86,29.63,10,8,2,18,5,25,0.10,6,Rain-Snow,338
2013-11-21,24,13,1,5,2,-3,87,63,39,30.77,30.62,30.36,10,10,10,9,2,9,0.00,0,,141
2013-11-22,32,16,0,10,4,-4,87,63,39,30.87,30.79,30.71,10,10,10,7,2,8,0.00,0,,134
2013-11-23,38,21,3,17,8,-1,88,63,38,30.77,30.62,30.44,10,10,10,8,2,8,0.00,0,,160
2013-11-24,41,24,7,23,13,4,84,62,40,30.42,30.36,30.27,10,10,10,10,1,12,0.00,3,,160
2013-11-25,46,31,15,24,19,12,88,63,37,30.55,30.43,30.30,10,10,9,7,1,7,0.00,2,,141
2013-11-26,48,31,13,27,19,11,91,65,38,30.53,30.39,30.25,10,10,10,6,2,7,0.00,0,,158
2013-11-27,46,31,16,23,19,13,92,66,39,30.31,30.23,30.14,10,10,9,9,2,12,0.00,0,,143
2013-11-28,43,28,12,23,16,9,88,66,43,30.30,30.24,30.16,10,10,10,7,1,7,0.00,0,,138
2013-11-29,49,30,10,23,16,8,88,59,29,30.36,30.27,30.17,10,10,8,12,2,17,0.00,2,,249
2013-11-30,42,36,30,30,26,23,92,73,53,30.26,30.20,30.15,10,10,10,12,3,16,T,8,,323